Time;durP1;ratioP1;P1;durP2;ratioP2;P2;SDS_P1;SDS_P2;PMS_P1;PMS_P2;Temp;Humidity;BMP_temperature;BMP_pressure;BME280_temperature;BME280_humidity;BME280_pressure;Samples;Min_cycle;Max_cycle;Signal;HPM_P1;HPM_P2
2021/10/27 00:01:35;;;;;;;13.60;5.53;;;12.80;99.90;;;;;;4946049;29;20032;-76
2021/10/27 00:04:02;;;;;;;16.60;5.15;;;12.90;99.90;;;;;;4947238;29;20039;-73
2021/10/27 00:06:28;;;;;;;14.52;5.47;;;12.90;99.90;;;;;;4947606;29;20027;-75
2021/10/27 00:08:54;;;;;;;11.63;5.72;;;12.90;99.90;;;;;;4945758;29;20032;-73
2021/10/27 00:11:19;;;;;;;8.07;4.65;;;12.90;99.90;;;;;;4946765;29;20047;-74
2021/10/27 00:13:47;;;;;;;15.40;4.60;;;12.90;99.90;;;;;;4947301;29;20153;-72
2021/10/27 00:16:13;;;;;;;10.10;4.95;;;12.90;99.90;;;;;;4946769;29;20031;-76
2021/10/27 00:18:38;;;;;;;9.88;4.90;;;12.80;99.90;;;;;;4947071;29;20027;-74
2021/10/27 00:21:04;;;;;;;15.93;5.22;;;12.90;99.90;;;;;;4947270;29;20030;-74
2021/10/27 00:23:29;;;;;;;12.07;5.30;;;12.90;99.90;;;;;;4946486;29;20469;-73
2021/10/27 00:25:55;;;;;;;12.07;5.53;;;12.90;99.90;;;;;;4946539;29;20077;-73
2021/10/27 00:28:20;;;;;;;13.85;6.05;;;12.90;99.90;;;;;;4946950;29;20032;-74
2021/10/27 00:30:46;;;;;;;15.40;6.45;;;12.90;99.90;;;;;;4945561;29;20706;-74
2021/10/27 00:33:12;;;;;;;15.35;5.57;;;12.90;99.90;;;;;;4945659;29;20038;-74
2021/10/27 00:35:38;;;;;;;10.60;4.38;;;12.90;99.90;;;;;;4947146;29;20044;-72
2021/10/27 00:38:03;;;;;;;10.70;5.28;;;12.90;99.90;;;;;;4946688;29;20028;-73
2021/10/27 00:40:29;;;;;;;14.70;5.57;;;13.00;99.90;;;;;;4946843;29;20035;-71
2021/10/27 00:42:55;;;;;;;23.83;7.40;;;12.90;99.90;;;;;;4946700;29;20032;-75
2021/10/27 00:45:21;;;;;;;13.40;6.07;;;13.00;99.90;;;;;;4945339;29;20070;-75
2021/10/27 00:47:46;;;;;;;11.07;6.05;;;12.90;99.90;;;;;;4946583;29;20260;-76
2021/10/27 00:50:13;;;;;;;21.00;6.18;;;13.00;99.90;;;;;;4945719;29;20034;-74
2021/10/27 00:52:39;;;;;;;16.33;4.75;;;13.00;99.90;;;;;;4945384;29;20031;-75
2021/10/27 00:55:05;;;;;;;13.45;5.72;;;13.00;99.90;;;;;;4946195;29;20050;-74
2021/10/27 00:57:31;;;;;;;13.15;6.38;;;13.00;99.90;;;;;;4945631;29;20054;-76
2021/10/27 00:59:57;;;;;;;18.65;5.47;;;13.00;99.90;;;;;;4944997;29;20028;-75
2021/10/27 01:02:22;;;;;;;14.48;6.05;;;12.90;99.90;;;;;;4946641;29;20119;-77
2021/10/27 01:04:48;;;;;;;13.30;6.38;;;13.00;99.90;;;;;;4946672;29;20040;-75
2021/10/27 01:07:16;;;;;;;18.17;5.93;;;12.90;99.90;;;;;;4945040;29;20115;-75
2021/10/27 01:09:43;;;;;;;15.40;6.88;;;12.90;99.90;;;;;;4945214;29;20032;-77
2021/10/27 01:12:09;;;;;;;18.77;6.13;;;12.90;99.90;;;;;;4945325;29;20035;-74
2021/10/27 01:14:44;;;;;;;16.88;7.18;;;13.00;99.90;;;;;;4947105;29;20047;-73
2021/10/27 01:17:12;;;;;;;15.07;6.68;;;13.00;99.90;;;;;;4955232;28;20035;-75
2021/10/27 01:19:47;;;;;;;14.68;6.00;;;13.00;99.90;;;;;;4946655;29;20055;-75
2021/10/27 01:22:14;;;;;;;18.92;6.95;;;13.00;99.90;;;;;;4946341;29;20031;-75
2021/10/27 01:24:44;;;;;;;16.77;5.88;;;13.00;99.90;;;;;;4945119;29;20405;-72
2021/10/27 01:27:10;;;;;;;14.35;7.00;;;13.00;99.90;;;;;;4946749;29;20063;-75
2021/10/27 01:29:36;;;;;;;19.23;7.00;;;13.00;99.90;;;;;;4946230;29;20076;-75
2021/10/27 01:32:03;;;;;;;14.50;6.88;;;13.10;99.90;;;;;;4944911;29;20038;-75
2021/10/27 01:34:29;;;;;;;13.02;6.40;;;13.00;99.90;;;;;;4945547;29;20062;-73
2021/10/27 01:36:54;;;;;;;13.65;6.65;;;13.00;99.90;;;;;;4944605;29;20571;-74
2021/10/27 01:39:20;;;;;;;20.35;7.40;;;13.00;99.90;;;;;;4947472;29;20043;-75
2021/10/27 01:41:45;;;;;;;24.02;8.65;;;13.00;99.90;;;;;;4949160;29;20673;-76
2021/10/27 01:44:12;;;;;;;17.48;6.95;;;13.00;99.90;;;;;;4949564;29;20031;-77
2021/10/27 01:46:39;;;;;;;18.75;9.02;;;13.00;99.90;;;;;;4949946;29;20054;-75
2021/10/27 01:49:07;;;;;;;17.42;6.18;;;13.00;99.90;;;;;;4947940;29;20126;-76
2021/10/27 01:51:34;;;;;;;21.60;7.90;;;13.00;99.90;;;;;;4947773;29;20055;-77
2021/10/27 01:54:00;;;;;;;16.20;7.22;;;13.00;99.90;;;;;;4949054;29;20043;-75
2021/10/27 01:56:27;;;;;;;16.35;6.53;;;13.00;99.90;;;;;;4947692;29;20023;-76
2021/10/27 01:58:54;;;;;;;21.40;7.18;;;13.00;99.90;;;;;;4949402;29;20028;-75
2021/10/27 02:01:19;;;;;;;11.23;5.80;;;13.00;99.90;;;;;;4949459;29;20031;-74
2021/10/27 02:03:46;;;;;;;27.92;7.47;;;13.10;99.90;;;;;;4949002;29;20081;-78
2021/10/27 02:06:12;;;;;;;16.85;6.60;;;13.00;99.90;;;;;;4949390;29;20083;-72
2021/10/27 02:08:38;;;;;;;24.77;8.18;;;13.00;99.90;;;;;;4949738;29;20079;-76
2021/10/27 02:11:04;;;;;;;14.68;6.25;;;13.00;99.90;;;;;;4947404;29;20044;-74
2021/10/27 02:13:29;;;;;;;15.82;7.13;;;13.00;99.90;;;;;;4948058;29;20108;-74
2021/10/27 02:15:55;;;;;;;25.13;9.18;;;13.00;99.90;;;;;;4949395;29;20045;-78
2021/10/27 02:18:21;;;;;;;12.95;6.00;;;13.00;99.90;;;;;;4948693;29;20024;-74
2021/10/27 02:20:46;;;;;;;17.98;7.03;;;13.00;99.90;;;;;;4948042;29;20122;-76
2021/10/27 02:23:13;;;;;;;23.05;7.22;;;13.00;99.90;;;;;;4948434;29;20043;-75
2021/10/27 02:25:38;;;;;;;24.80;8.02;;;13.00;99.90;;;;;;4948993;29;20042;-75
2021/10/27 02:28:10;;;;;;;23.35;7.55;;;13.00;99.90;;;;;;4949313;29;20032;-73
2021/10/27 02:30:36;;;;;;;19.05;6.45;;;13.00;99.90;;;;;;4948957;29;20032;-74
2021/10/27 02:33:02;;;;;;;18.05;6.15;;;13.00;99.90;;;;;;4948345;29;20035;-76
2021/10/27 02:35:28;;;;;;;14.30;7.10;;;13.10;99.90;;;;;;4948728;29;20043;-74
2021/10/27 02:37:54;;;;;;;18.85;7.93;;;13.00;99.90;;;;;;4947358;29;20087;-75
2021/10/27 02:40:20;;;;;;;20.38;7.30;;;13.00;99.90;;;;;;4946942;29;20028;-75
2021/10/27 02:42:45;;;;;;;15.38;7.68;;;13.10;99.90;;;;;;4948727;29;20028;-74
2021/10/27 02:45:12;;;;;;;20.67;8.10;;;13.10;99.90;;;;;;4948942;29;20031;-75
2021/10/27 02:47:38;;;;;;;22.13;7.47;;;13.00;99.90;;;;;;4948942;29;20034;-75
2021/10/27 02:50:05;;;;;;;25.58;7.82;;;13.00;99.90;;;;;;4946934;29;20027;-74
2021/10/27 02:52:32;;;;;;;18.48;8.68;;;13.00;99.90;;;;;;4947521;29;20611;-76
2021/10/27 02:54:58;;;;;;;18.50;7.40;;;13.00;99.90;;;;;;4948396;29;20500;-74
2021/10/27 02:57:24;;;;;;;18.73;7.22;;;13.00;99.90;;;;;;4948327;29;20058;-75
2021/10/27 02:59:50;;;;;;;19.65;8.23;;;13.10;99.90;;;;;;4946768;29;20061;-76
2021/10/27 03:02:25;;;;;;;14.63;6.88;;;13.10;99.90;;;;;;4947224;29;20032;-75
2021/10/27 03:04:51;;;;;;;17.80;8.18;;;13.10;99.90;;;;;;4947025;29;20032;-74
2021/10/27 03:07:17;;;;;;;18.25;8.05;;;13.10;99.90;;;;;;4948274;29;20031;-75
2021/10/27 03:09:43;;;;;;;26.15;8.52;;;13.10;99.90;;;;;;4947845;29;20028;-74
2021/10/27 03:12:09;;;;;;;16.58;7.40;;;13.10;99.90;;;;;;4948460;29;20028;-76
2021/10/27 03:14:35;;;;;;;17.55;8.52;;;13.10;99.90;;;;;;4947422;29;20035;-74
2021/10/27 03:17:01;;;;;;;17.55;7.38;;;13.10;99.90;;;;;;4948121;29;20071;-74
2021/10/27 03:19:26;;;;;;;19.27;8.85;;;13.10;99.90;;;;;;4946146;29;20032;-76
2021/10/27 03:21:52;;;;;;;15.57;8.25;;;13.10;99.90;;;;;;4947455;29;20032;-75
2021/10/27 03:24:17;;;;;;;17.90;7.60;;;13.10;99.90;;;;;;4948098;29;20059;-75
2021/10/27 03:26:43;;;;;;;25.33;8.98;;;13.10;99.90;;;;;;4946749;29;20099;-75
2021/10/27 03:29:09;;;;;;;17.30;7.53;;;13.10;99.90;;;;;;4947831;29;20058;-76
2021/10/27 03:31:35;;;;;;;18.55;8.57;;;13.10;99.90;;;;;;4947830;29;20028;-74
2021/10/27 03:34:01;;;;;;;24.17;7.95;;;13.20;99.90;;;;;;4947537;29;20023;-73
2021/10/27 03:36:27;;;;;;;20.55;8.10;;;13.10;99.90;;;;;;4947569;29;20056;-74
2021/10/27 03:38:52;;;;;;;19.30;8.68;;;13.10;99.90;;;;;;4947653;29;20039;-73
2021/10/27 03:41:18;;;;;;;15.57;7.28;;;13.10;99.90;;;;;;4947115;29;20032;-72
2021/10/27 03:43:44;;;;;;;16.33;7.57;;;13.10;99.90;;;;;;4947895;29;20035;-71
2021/10/27 03:46:11;;;;;;;16.30;6.95;;;13.10;99.90;;;;;;4947749;29;20104;-75
2021/10/27 03:48:38;;;;;;;17.90;6.75;;;13.20;99.90;;;;;;4945672;29;20079;-75
2021/10/27 03:51:05;;;;;;;16.50;7.05;;;13.10;99.90;;;;;;4945933;29;20090;-75
2021/10/27 03:53:30;;;;;;;16.27;7.00;;;13.10;99.90;;;;;;4947675;29;20031;-75
2021/10/27 03:55:56;;;;;;;17.10;7.45;;;13.20;99.90;;;;;;4946945;29;20051;-75
2021/10/27 03:58:22;;;;;;;30.52;7.72;;;13.20;99.90;;;;;;4945864;29;20401;-76
2021/10/27 04:00:48;;;;;;;25.77;7.78;;;13.20;99.90;;;;;;4947609;29;20046;-76
2021/10/27 04:03:21;;;;;;;18.95;7.10;;;13.20;99.90;;;;;;4945546;29;20035;-74
2021/10/27 04:05:46;;;;;;;19.45;7.72;;;13.20;99.90;;;;;;4947482;29;20053;-76
2021/10/27 04:08:13;;;;;;;25.92;7.95;;;13.20;99.90;;;;;;4945807;29;20052;-75
2021/10/27 04:10:40;;;;;;;19.65;6.93;;;13.20;99.90;;;;;;4947148;29;20061;-76
2021/10/27 04:13:11;;;;;;;13.48;6.20;;;13.20;99.90;;;;;;4947626;29;20115;-74
2021/10/27 04:15:37;;;;;;;19.20;7.65;;;13.20;99.90;;;;;;4947134;29;20050;-72
2021/10/27 04:18:03;;;;;;;17.92;6.78;;;13.20;99.90;;;;;;4945866;29;20475;-72
2021/10/27 04:20:28;;;;;;;18.90;8.52;;;13.30;99.90;;;;;;4946523;29;20043;-75
2021/10/27 04:22:54;;;;;;;20.60;10.82;;;13.20;99.90;;;;;;4946800;29;20028;-74
2021/10/27 04:25:19;;;;;;;18.38;8.27;;;13.20;99.90;;;;;;4946513;29;20370;-72
2021/10/27 04:27:45;;;;;;;28.58;9.02;;;13.30;99.90;;;;;;4947104;29;20084;-74
2021/10/27 04:30:11;;;;;;;18.98;8.50;;;13.30;99.90;;;;;;4946550;29;20028;-76
2021/10/27 04:32:38;;;;;;;15.75;6.88;;;13.30;99.90;;;;;;4946946;29;20063;-73
2021/10/27 04:35:05;;;;;;;17.33;7.30;;;13.20;99.90;;;;;;4946967;29;20062;-74
2021/10/27 04:37:34;;;;;;;15.38;6.55;;;13.30;99.90;;;;;;4945210;29;20120;-74
2021/10/27 04:40:00;;;;;;;17.02;7.95;;;13.30;99.90;;;;;;4947094;29;20027;-74
2021/10/27 04:42:26;;;;;;;19.35;8.95;;;13.30;99.90;;;;;;4946722;29;20048;-72
2021/10/27 04:44:51;;;;;;;24.45;8.35;;;13.30;99.90;;;;;;4946370;29;20056;-73
2021/10/27 04:47:17;;;;;;;19.20;9.05;;;13.40;99.90;;;;;;4946907;29;20463;-74
2021/10/27 04:49:42;;;;;;;11.68;6.10;;;13.30;99.90;;;;;;4946688;29;20032;-74
2021/10/27 04:52:08;;;;;;;16.23;7.72;;;13.30;99.90;;;;;;4945153;29;20035;-74
2021/10/27 04:54:34;;;;;;;26.00;7.82;;;13.30;99.90;;;;;;4947046;29;20046;-75
2021/10/27 04:57:00;;;;;;;18.33;6.85;;;13.30;99.90;;;;;;4944670;29;20031;-76
2021/10/27 04:59:30;;;;;;;18.10;8.23;;;13.30;99.90;;;;;;4946903;29;20059;-73
2021/10/27 05:01:56;;;;;;;18.35;8.55;;;13.30;99.90;;;;;;4946999;29;20075;-74
2021/10/27 05:04:22;;;;;;;17.08;7.65;;;13.20;99.90;;;;;;4945961;29;20127;-75
2021/10/27 05:06:48;;;;;;;20.73;8.38;;;13.30;99.90;;;;;;4945056;29;20040;-78
2021/10/27 05:09:13;;;;;;;14.55;7.63;;;13.20;99.90;;;;;;4957501;29;20027;-77
2021/10/27 05:11:40;;;;;;;16.67;8.20;;;13.20;99.90;;;;;;4948048;28;20090;-75
2021/10/27 05:14:05;;;;;;;20.02;7.78;;;13.20;99.90;;;;;;4947279;29;20099;-74
2021/10/27 05:16:31;;;;;;;20.48;7.63;;;13.20;99.90;;;;;;4950213;29;20511;-74
2021/10/27 05:18:56;;;;;;;17.05;7.68;;;13.20;99.90;;;;;;4948589;29;20035;-72
2021/10/27 05:21:22;;;;;;;24.83;8.65;;;13.20;99.90;;;;;;4950027;29;20036;-75
2021/10/27 05:23:48;;;;;;;17.20;8.00;;;13.20;99.90;;;;;;4949077;29;20032;-75
2021/10/27 05:26:13;;;;;;;20.40;8.90;;;13.20;99.90;;;;;;4949934;29;20024;-76
2021/10/27 05:28:39;;;;;;;17.00;8.32;;;13.20;99.90;;;;;;4950506;29;20453;-74
2021/10/27 05:31:05;;;;;;;26.00;9.15;;;13.20;99.90;;;;;;4950418;29;20040;-75
2021/10/27 05:33:30;;;;;;;23.73;9.93;;;13.10;99.90;;;;;;4949846;29;20038;-74
2021/10/27 05:35:56;;;;;;;18.38;8.27;;;13.10;99.90;;;;;;4950001;29;20043;-74
2021/10/27 05:38:21;;;;;;;18.38;8.32;;;13.10;99.90;;;;;;4949681;29;20088;-75
2021/10/27 05:40:47;;;;;;;19.88;8.40;;;13.10;99.90;;;;;;4949262;29;20024;-75
2021/10/27 05:43:14;;;;;;;24.00;7.80;;;13.10;99.90;;;;;;4950114;29;20110;-77
2021/10/27 05:45:40;;;;;;;21.42;9.80;;;13.20;99.90;;;;;;4948108;29;20027;-75
2021/10/27 05:48:08;;;;;;;19.45;8.15;;;13.10;99.90;;;;;;4949766;29;20080;-74
2021/10/27 05:55:44;;;;;;;;;;;13.10;99.90;;;;;;4955767;29;20050;-76
2021/10/27 05:58:12;;;;;;;17.90;8.93;;;13.10;99.90;;;;;;4958457;29;19949;-76
2021/10/27 06:00:39;;;;;;;18.13;8.23;;;13.10;99.90;;;;;;4955064;29;20524;-76
2021/10/27 06:03:05;;;;;;;35.03;9.80;;;13.10;99.90;;;;;;4955933;28;20106;-75
2021/10/27 06:05:31;;;;;;;20.27;10.15;;;13.00;99.90;;;;;;4964282;29;20075;-74
2021/10/27 06:07:58;;;;;;;23.70;9.18;;;13.10;99.90;;;;;;4949187;29;20038;-76
2021/10/27 06:10:25;;;;;;;22.75;7.72;;;13.10;99.90;;;;;;4960872;28;20389;-74
2021/10/27 06:12:55;;;;;;;19.85;8.18;;;13.10;99.90;;;;;;4963207;29;20119;-75
2021/10/27 06:15:22;;;;;;;17.92;8.18;;;13.10;99.90;;;;;;4962566;29;20430;-75
2021/10/27 06:17:49;;;;;;;23.30;8.38;;;13.10;99.90;;;;;;4958792;28;20326;-75
2021/10/27 06:20:14;;;;;;;13.82;7.60;;;13.10;99.90;;;;;;4948898;28;20040;-75
2021/10/27 06:22:41;;;;;;;24.13;9.07;;;13.10;99.90;;;;;;4951381;29;20036;-76
2021/10/27 06:25:09;;;;;;;19.50;8.00;;;13.10;99.90;;;;;;4959344;28;20039;-74
2021/10/27 06:27:35;;;;;;;25.98;9.60;;;13.10;99.90;;;;;;4962263;28;20045;-74
2021/10/27 06:30:22;;;;;;;15.90;6.97;;;13.10;99.90;;;;;;4967175;28;20020;-75
2021/10/27 06:33:06;;;;;;;15.93;7.45;;;13.10;99.90;;;;;;4964907;28;20070;-76
2021/10/27 06:35:36;;;;;;;17.15;7.80;;;13.10;99.90;;;;;;4960902;29;20118;-76
2021/10/27 06:48:58;;;;;;;21.58;7.80;;;13.20;99.90;;;;;;4953331;29;20516;-75
2021/10/27 06:51:23;;;;;;;19.05;7.70;;;13.30;99.90;;;;;;4948225;29;20035;-78
2021/10/27 06:53:49;;;;;;;16.35;7.55;;;13.30;99.90;;;;;;4948339;29;20027;-75
2021/10/27 06:56:17;;;;;;;13.27;6.60;;;13.30;99.90;;;;;;4947150;29;20051;-78
2021/10/27 06:59:33;;;;;;;12.32;6.30;;;13.30;99.90;;;;;;4947408;29;20024;-75
2021/10/27 07:06:51;;;;;;;16.70;7.68;;;13.40;99.90;;;;;;4965843;29;20026;-74
2021/10/27 07:15:01;;;;;;;13.63;6.88;;;13.40;99.90;;;;;;4948997;29;20416;-73
2021/10/27 07:17:29;;;;;;;17.85;7.72;;;13.40;99.90;;;;;;4947267;29;20036;-77
2021/10/27 07:19:55;;;;;;;16.15;6.60;;;13.50;99.90;;;;;;4951551;29;20030;-76
2021/10/27 07:22:21;;;;;;;12.18;5.57;;;13.50;99.90;;;;;;4959889;28;20035;-75
2021/10/27 07:24:47;;;;;;;13.80;5.82;;;13.50;99.90;;;;;;4965008;28;20122;-77
2021/10/27 07:27:13;;;;;;;24.23;6.68;;;13.50;99.90;;;;;;4967229;28;20050;-74
2021/10/27 07:29:43;;;;;;;13.35;6.85;;;13.50;99.90;;;;;;4968312;28;20047;-80
2021/10/27 07:32:12;;;;;;;9.82;4.93;;;13.50;99.90;;;;;;4959200;28;20035;-76
2021/10/27 07:34:41;;;;;;;11.50;5.85;;;13.60;99.90;;;;;;4962678;29;20526;-75
2021/10/27 07:40:05;;;;;;;11.10;4.90;;;13.60;99.90;;;;;;4948346;29;20100;-75
2021/10/27 07:42:32;;;;;;;12.82;5.85;;;13.60;99.90;;;;;;4948393;29;20038;-75
2021/10/27 07:44:57;;;;;;;20.55;6.72;;;13.60;99.90;;;;;;4948384;29;20024;-75
2021/10/27 07:47:23;;;;;;;15.75;6.55;;;13.70;99.90;;;;;;4947932;29;20032;-75
2021/10/27 07:49:52;;;;;;;26.85;6.95;;;13.60;99.90;;;;;;4947820;29;20036;-76
2021/10/27 07:52:18;;;;;;;12.23;6.53;;;13.50;99.90;;;;;;4948524;29;20055;-74
2021/10/27 07:54:45;;;;;;;13.20;6.13;;;13.50;99.90;;;;;;4951642;28;20115;-76
2021/10/27 07:57:12;;;;;;;11.55;4.68;;;13.50;99.90;;;;;;4948009;29;20384;-76
2021/10/27 07:59:38;;;;;;;15.40;6.63;;;13.50;99.90;;;;;;4954261;29;20066;-75
2021/10/27 08:02:04;;;;;;;12.05;5.68;;;13.50;99.90;;;;;;4963349;28;20031;-76
2021/10/27 08:04:30;;;;;;;10.65;5.10;;;13.40;99.90;;;;;;4962861;29;20502;-74
2021/10/27 08:06:56;;;;;;;14.88;6.45;;;13.50;99.90;;;;;;4966830;28;20027;-75
2021/10/27 08:09:21;;;;;;;14.93;6.57;;;13.50;99.90;;;;;;4966697;28;20050;-77
2021/10/27 08:11:48;;;;;;;17.15;6.60;;;13.60;99.90;;;;;;4965417;28;20047;-77
2021/10/27 08:14:15;;;;;;;12.38;6.38;;;13.60;99.90;;;;;;4966026;28;20031;-76
2021/10/27 08:16:41;;;;;;;12.30;5.90;;;13.60;99.90;;;;;;4965613;28;20030;-75
2021/10/27 08:19:08;;;;;;;14.77;7.07;;;13.60;99.90;;;;;;4961928;28;20039;-74
2021/10/27 08:21:34;;;;;;;11.02;5.68;;;13.60;99.90;;;;;;4954316;28;20059;-74
2021/10/27 08:24:01;;;;;;;12.25;5.28;;;13.60;99.90;;;;;;4956322;28;20051;-76
2021/10/27 08:26:27;;;;;;;19.10;5.72;;;13.60;99.90;;;;;;4956086;28;20040;-77
2021/10/27 08:28:59;;;;;;;19.05;6.63;;;13.60;99.90;;;;;;4958519;29;20158;-75
2021/10/27 08:36:26;;;;;;;10.80;6.05;;;13.70;99.90;;;;;;4964489;29;20042;-76
2021/10/27 08:38:55;;;;;;;12.23;5.85;;;13.70;99.90;;;;;;4953914;28;20954;-75
2021/10/27 08:41:21;;;;;;;16.83;7.28;;;13.80;99.90;;;;;;4947884;29;20112;-76
2021/10/27 08:43:47;;;;;;;13.38;5.40;;;13.70;99.90;;;;;;4963219;29;20031;-76
2021/10/27 08:46:16;;;;;;;16.88;5.93;;;13.80;99.90;;;;;;4966553;28;20035;-75
2021/10/27 08:48:48;;;;;;;16.05;5.90;;;13.80;99.90;;;;;;4947766;29;20034;-71
2021/10/27 08:51:14;;;;;;;14.70;5.97;;;13.80;99.90;;;;;;4951536;29;20028;-75
2021/10/27 08:53:40;;;;;;;8.00;4.28;;;13.80;99.90;;;;;;4960291;29;20031;-74
2021/10/27 08:56:06;;;;;;;14.73;5.60;;;13.80;99.90;;;;;;4966646;29;20521;-73
2021/10/27 08:58:40;;;;;;;9.65;4.80;;;13.90;99.90;;;;;;4969907;28;20031;-75
2021/10/27 09:04:10;;;;;;;8.52;4.90;;;13.90;99.90;;;;;;4969952;28;20043;-75
2021/10/27 09:09:29;;;;;;;9.30;5.43;;;13.90;99.90;;;;;;4964619;28;20042;-75
2021/10/27 10:06:18;;;;;;;12.80;5.25;;;14.10;99.90;;;;;;4956942;29;20034;-76
2021/10/27 10:08:47;;;;;;;10.32;4.88;;;14.10;99.90;;;;;;4952137;28;20054;-80
2021/10/27 10:11:24;;;;;;;16.25;5.97;;;14.20;99.90;;;;;;4964723;28;20560;-82
2021/10/27 10:14:02;;;;;;;11.27;5.90;;;14.20;99.90;;;;;;4965961;28;20058;-76
2021/10/27 10:16:33;;;;;;;8.75;5.47;;;14.10;99.90;;;;;;4967558;28;20135;-76
2021/10/27 10:19:07;;;;;;;13.82;5.63;;;14.20;99.90;;;;;;4964276;29;20091;-80
2021/10/27 10:21:48;;;;;;;13.85;6.10;;;14.20;99.90;;;;;;4962703;29;20118;-77
2021/10/27 10:24:17;;;;;;;15.13;6.03;;;14.20;99.90;;;;;;4968635;28;20027;-78
2021/10/27 10:27:05;;;;;;;12.55;5.75;;;14.20;99.90;;;;;;4966023;28;20031;-75
2021/10/27 10:29:38;;;;;;;11.73;5.82;;;14.30;99.90;;;;;;4957810;28;20058;-76
2021/10/27 10:32:21;;;;;;;27.10;7.35;;;14.30;99.90;;;;;;4953854;29;20343;-80
2021/10/27 10:34:52;;;;;;;11.25;6.82;;;14.20;99.90;;;;;;4965720;28;20492;-81
2021/10/27 10:37:43;;;;;;;18.85;7.40;;;14.30;99.90;;;;;;4966290;28;20031;-75
2021/10/27 10:43:51;;;;;;;11.80;5.82;;;14.30;99.90;;;;;;4938187;29;20107;-80
2021/10/27 11:25:18;;;;;;;12.90;5.22;;;14.30;99.90;;;;;;4947862;29;20050;-77
2021/10/27 11:44:47;;;;;;;;;;;14.10;99.90;;;;;;4948098;28;20039;-76
2021/10/27 11:47:33;;;;;;;9.73;5.07;;;14.10;99.90;;;;;;4951026;29;20355;-76
2021/10/27 11:50:01;;;;;;;10.93;5.50;;;14.10;99.90;;;;;;4956230;29;20280;-76
2021/10/27 11:52:40;;;;;;;12.00;5.38;;;14.10;99.90;;;;;;4947226;29;20067;-75
2021/10/27 11:55:08;;;;;;;12.45;5.20;;;14.10;99.90;;;;;;4963464;29;20048;-75
2021/10/27 11:57:38;;;;;;;9.25;5.32;;;14.10;99.90;;;;;;4966752;28;20038;-76
2021/10/27 12:00:07;;;;;;;13.68;4.97;;;14.10;99.90;;;;;;4966700;28;20029;-76
2021/10/27 12:03:00;;;;;;;10.18;5.28;;;14.10;99.90;;;;;;4962994;28;20598;-76
2021/10/27 12:05:30;;;;;;;10.38;4.70;;;14.10;99.90;;;;;;4947274;29;20039;-78
2021/10/27 12:11:31;;;;;;;10.48;5.22;;;14.10;99.90;;;;;;4947139;29;20062;-76
2021/10/27 12:13:56;;;;;;;11.63;4.55;;;14.10;99.90;;;;;;4943780;29;20040;-77
2021/10/27 12:16:58;;;;;;;7.65;4.40;;;14.10;99.90;;;;;;4951409;29;20094;-74
2021/10/27 12:19:30;;;;;;;10.00;4.65;;;14.10;99.90;;;;;;4959133;29;20038;-76
2021/10/27 12:22:08;;;;;;;13.27;4.63;;;14.10;99.90;;;;;;4945413;29;20103;-77
2021/10/27 12:24:39;;;;;;;10.63;4.88;;;14.10;99.90;;;;;;4946203;29;20050;-78
2021/10/27 12:27:37;;;;;;;9.25;4.63;;;14.20;99.90;;;;;;4947148;29;20056;-75
2021/10/27 12:30:15;;;;;;;12.88;4.85;;;14.20;99.90;;;;;;4946775;29;20091;-75
2021/10/27 12:32:57;;;;;;;9.00;4.50;;;14.30;99.90;;;;;;4946030;29;20028;-78
2021/10/27 12:35:27;;;;;;;14.55;4.18;;;14.40;99.90;;;;;;4945976;29;20043;-78
2021/10/27 12:38:07;;;;;;;9.52;4.32;;;14.40;99.90;;;;;;4946929;29;20461;-77
2021/10/27 12:40:43;;;;;;;9.85;4.43;;;14.50;99.90;;;;;;4945377;29;20041;-76
2021/10/27 12:43:13;;;;;;;10.27;2.65;;;14.50;99.90;;;;;;4945365;29;20119;-74
2021/10/27 12:45:51;;;;;;;7.18;3.78;;;14.50;99.90;;;;;;4945706;29;20136;-73
2021/10/27 12:48:37;;;;;;;8.70;4.25;;;14.50;99.90;;;;;;4946630;29;20028;-75
2021/10/27 12:51:09;;;;;;;8.30;3.63;;;14.50;99.90;;;;;;4945548;29;20095;-77
2021/10/27 12:53:39;;;;;;;5.35;2.63;;;14.60;99.90;;;;;;4947275;29;20049;-80
2021/10/27 12:56:08;;;;;;;14.02;3.42;;;14.70;99.90;;;;;;4946266;29;20046;-76
2021/10/27 12:58:38;;;;;;;7.57;3.30;;;14.70;99.90;;;;;;4945390;29;20092;-78
2021/10/27 13:01:34;;;;;;;6.65;2.75;;;14.70;99.90;;;;;;4946636;29;20028;-77
2021/10/27 13:07:16;;;;;;;8.88;2.53;;;14.80;99.90;;;;;;4946773;29;20066;-77
2021/10/27 13:12:27;;;;;;;8.20;2.72;;;14.70;99.90;;;;;;4947049;29;20427;-78
2021/10/27 13:15:07;;;;;;;9.20;2.97;;;14.70;99.90;;;;;;4946970;29;20040;-79
2021/10/27 13:20:33;;;;;;;12.82;2.85;;;14.70;99.90;;;;;;4957461;29;20070;-80
2021/10/27 13:33:20;;;;;;;5.15;1.95;;;14.80;99.90;;;;;;4964059;28;20126;-77
2021/10/27 13:35:47;;;;;;;4.63;2.05;;;14.90;99.90;;;;;;4966523;28;20063;-82
2021/10/27 13:38:14;;;;;;;11.63;1.90;;;14.90;99.90;;;;;;4968530;28;20055;-77
2021/10/27 13:40:44;;;;;;;6.72;1.90;;;15.00;99.90;;;;;;4968075;28;20027;-74
2021/10/27 13:43:20;;;;;;;5.95;2.75;;;14.90;99.90;;;;;;4968541;28;20027;-75
2021/10/27 13:46:10;;;;;;;5.68;2.08;;;14.90;99.90;;;;;;4966597;29;20031;-81
2021/10/27 14:07:40;;;;;;;4.80;2.75;;;14.90;99.90;;;;;;4949322;29;20457;-76
2021/10/27 14:10:11;;;;;;;2.83;1.52;;;14.90;99.90;;;;;;4947996;29;20061;-75
2021/10/27 14:12:54;;;;;;;2.22;1.60;;;14.90;99.90;;;;;;4965532;29;20020;-75
2021/10/27 14:15:40;;;;;;;8.90;2.42;;;14.90;99.90;;;;;;4964590;28;20130;-77
2021/10/27 14:18:22;;;;;;;5.68;1.88;;;14.90;99.90;;;;;;4957119;29;20044;-77
2021/10/27 14:38:56;;;;;;;4.68;2.13;;;14.90;99.90;;;;;;4968481;28;20387;-74
2021/10/27 14:40:35;;;;;;;3.25;1.80;;;15.00;99.90;;;;;;4967827;29;20066;-75
2021/10/27 14:48:21;;;;;;;6.30;2.42;;;14.90;99.90;;;;;;4948547;29;20046;-75
2021/10/27 14:51:07;;;;;;;4.20;2.05;;;14.90;99.90;;;;;;4948911;29;20032;-76
2021/10/27 14:59:19;;;;;;;7.22;1.50;;;14.90;99.90;;;;;;4948727;29;20522;-77
2021/10/27 15:21:14;;;;;;;2.88;1.75;;;14.90;99.90;;;;;;4967523;29;20523;-77
2021/10/27 15:23:52;;;;;;;10.98;1.55;;;14.90;99.90;;;;;;4965953;28;20322;-77
2021/10/27 15:42:29;;;;;;;3.03;1.98;;;14.80;99.90;;;;;;4960255;29;20050;-75
2021/10/27 15:52:52;;;;;;;9.30;2.47;;;14.70;99.90;;;;;;4966265;29;20495;-75
2021/10/27 15:55:24;;;;;;;4.93;2.63;;;14.80;99.90;;;;;;4964239;28;20125;-77
2021/10/27 15:57:50;;;;;;;8.57;2.63;;;14.70;99.90;;;;;;4965260;28;20042;-75
2021/10/27 16:00:21;;;;;;;5.97;2.42;;;14.70;99.90;;;;;;4965230;28;20031;-76
2021/10/27 16:02:47;;;;;;;4.10;2.65;;;14.70;99.90;;;;;;4966663;28;20035;-74
2021/10/27 16:05:13;;;;;;;2.35;1.95;;;14.70;99.90;;;;;;4963439;28;20050;-78
2021/10/27 16:07:42;;;;;;;6.10;2.97;;;14.70;99.90;;;;;;4965595;28;20035;-79
2021/10/27 16:10:16;;;;;;;4.63;2.40;;;14.70;99.90;;;;;;4966227;28;20047;-81
2021/10/27 16:12:44;;;;;;;4.43;2.78;;;14.70;99.90;;;;;;4965211;29;20086;-80
2021/10/27 16:15:35;;;;;;;7.65;3.08;;;14.70;99.90;;;;;;4965684;28;20043;-79
2021/10/27 16:18:03;;;;;;;5.43;2.85;;;14.70;99.90;;;;;;4966510;28;20031;-80
2021/10/27 16:20:29;;;;;;;15.75;3.88;;;14.70;99.90;;;;;;4966283;28;20031;-77
2021/10/27 16:22:54;;;;;;;5.53;2.85;;;14.80;99.90;;;;;;4964939;28;20035;-77
2021/10/27 16:25:20;;;;;;;13.48;2.95;;;14.80;99.90;;;;;;4965338;28;20023;-77
2021/10/27 16:27:47;;;;;;;7.18;2.88;;;14.70;99.90;;;;;;4966031;28;20042;-81
2021/10/27 16:30:13;;;;;;;4.45;2.25;;;14.70;99.90;;;;;;4966402;28;20059;-79
2021/10/27 16:32:39;;;;;;;7.00;2.30;;;14.70;99.90;;;;;;4964780;28;20043;-78
2021/10/27 16:35:06;;;;;;;5.13;2.75;;;14.70;99.90;;;;;;4965965;28;20042;-78
2021/10/27 16:37:31;;;;;;;4.90;2.67;;;14.70;99.90;;;;;;4965045;28;20507;-77
2021/10/27 16:39:57;;;;;;;6.43;3.15;;;14.70;99.90;;;;;;4966169;28;20473;-79
2021/10/27 16:42:25;;;;;;;13.38;2.72;;;14.80;99.90;;;;;;4966076;28;20103;-78
2021/10/27 16:44:55;;;;;;;4.25;2.47;;;14.70;99.90;;;;;;4964328;28;20400;-80
2021/10/27 16:47:21;;;;;;;8.98;3.03;;;14.70;99.90;;;;;;4964040;28;20046;-78
2021/10/27 16:49:46;;;;;;;7.78;3.22;;;14.70;99.90;;;;;;4965873;28;20034;-78
2021/10/27 16:52:12;;;;;;;9.75;3.50;;;14.70;99.90;;;;;;4966071;28;20038;-76
2021/10/27 16:54:38;;;;;;;8.25;2.38;;;14.80;99.90;;;;;;4964117;28;20135;-76
2021/10/27 16:57:04;;;;;;;5.50;2.40;;;14.70;99.90;;;;;;4962244;28;20427;-81
2021/10/27 16:59:30;;;;;;;7.15;2.33;;;14.70;99.90;;;;;;4958784;28;20035;-80
2021/10/27 17:01:56;;;;;;;6.03;3.50;;;14.70;99.90;;;;;;4946357;28;20028;-76
2021/10/27 17:04:22;;;;;;;5.72;2.35;;;14.70;99.90;;;;;;4960071;29;20113;-78
2021/10/27 17:06:48;;;;;;;3.92;2.15;;;14.70;99.90;;;;;;4958449;28;20043;-77
2021/10/27 17:09:13;;;;;;;3.50;2.13;;;14.70;99.90;;;;;;4962621;28;20086;-76
2021/10/27 17:11:40;;;;;;;9.43;3.15;;;14.80;99.90;;;;;;4969561;28;20401;-77
2021/10/27 17:14:06;;;;;;;4.72;2.40;;;14.60;99.90;;;;;;4976395;29;20536;-77
2021/10/27 17:16:33;;;;;;;6.00;2.28;;;14.70;99.90;;;;;;4971709;29;20065;-78